createdAt,value
2022-09-14T00:01:48.994Z,2.85
2022-09-14T00:04:22.206Z,2.40
2022-09-14T00:06:52.755Z,2.50
2022-09-14T00:09:25.228Z,3.30
2022-09-14T00:11:56.447Z,2.28
2022-09-14T00:14:29.248Z,2.45
2022-09-14T00:16:59.450Z,2.70
2022-09-14T00:19:30.066Z,2.13
2022-09-14T00:22:01.701Z,2.50
2022-09-14T00:24:35.182Z,2.47
2022-09-14T00:27:05.570Z,3.20
2022-09-14T00:29:38.365Z,2.28
2022-09-14T00:32:08.615Z,2.50
2022-09-14T00:34:38.761Z,2.60
2022-09-14T00:37:09.029Z,2.55
2022-09-14T00:39:39.572Z,2.63
2022-09-14T00:42:10.157Z,2.70
2022-09-14T00:45:04.859Z,2.45
2022-09-14T00:47:35.779Z,2.65
2022-09-14T00:50:07.845Z,2.63
2022-09-14T00:52:41.008Z,2.60
2022-09-14T00:55:14.244Z,2.70
2022-09-14T00:57:47.629Z,2.30
2022-09-14T01:00:23.438Z,3.00
2022-09-14T01:02:53.841Z,2.50
2022-09-14T01:05:30.454Z,2.63
2022-09-14T01:08:12.957Z,3.00
2022-09-14T01:10:53.477Z,2.40
2022-09-14T01:13:35.581Z,2.72
2022-09-14T01:16:18.399Z,2.47
2022-09-14T01:18:52.552Z,2.67
2022-09-14T01:21:26.782Z,2.88
2022-09-14T01:24:04.305Z,2.90
2022-09-14T01:26:51.690Z,3.10
2022-09-14T01:29:31.048Z,2.72
2022-09-14T01:32:07.092Z,2.42
2022-09-14T01:34:43.272Z,2.72
2022-09-14T01:37:17.391Z,2.88
2022-09-14T01:39:51.809Z,2.72
2022-09-14T01:42:25.588Z,3.08
2022-09-14T01:45:03.139Z,2.50
2022-09-14T01:47:38.803Z,2.40
2022-09-14T01:50:13.748Z,2.58
2022-09-14T01:52:49.116Z,2.38
2022-09-14T01:55:23.713Z,2.55
2022-09-14T01:57:57.726Z,2.50
2022-09-14T02:03:06.428Z,2.42
2022-09-14T02:05:41.244Z,2.78
2022-09-14T02:08:11.544Z,2.75
2022-09-14T02:10:41.921Z,2.53
2022-09-14T02:13:12.473Z,2.47
2022-09-14T02:15:45.213Z,2.22
2022-09-14T02:18:15.405Z,2.30
2022-09-14T02:20:50.173Z,2.53
2022-09-14T02:23:21.066Z,2.70
2022-09-14T02:25:51.633Z,3.25
2022-09-14T02:28:21.865Z,2.53
2022-09-14T02:31:05.148Z,3.15
2022-09-14T02:33:43.883Z,2.22
2022-09-14T02:36:20.093Z,2.85
2022-09-14T02:38:59.260Z,3.25
2022-09-14T02:41:40.028Z,2.85
2022-09-14T02:44:21.829Z,2.67
2022-09-14T02:47:00.621Z,3.80
2022-09-14T02:49:41.970Z,2.65
2022-09-14T02:52:19.048Z,2.55
2022-09-14T02:54:55.935Z,3.03
2022-09-14T02:57:26.142Z,2.72
2022-09-14T02:59:57.349Z,2.90
2022-09-14T03:02:30.105Z,2.60
2022-09-14T03:05:00.242Z,2.72
2022-09-14T03:07:30.322Z,3.03
2022-09-14T03:10:00.470Z,2.50
2022-09-14T03:12:30.641Z,2.63
2022-09-14T03:15:00.803Z,2.72
2022-09-14T03:17:33.529Z,2.75
2022-09-14T03:20:04.257Z,2.80
2022-09-14T03:22:35.748Z,2.53
2022-09-14T03:25:05.911Z,2.80
2022-09-14T03:27:36.052Z,2.83
2022-09-14T03:30:07.290Z,2.95
2022-09-14T03:32:40.129Z,2.60
2022-09-14T03:35:11.629Z,2.67
2022-09-14T03:37:43.035Z,2.92
2022-09-14T03:40:21.409Z,2.78
2022-09-14T03:42:53.873Z,3.22
2022-09-14T03:45:24.462Z,2.65
2022-09-14T03:47:57.217Z,3.00
2022-09-14T03:50:27.333Z,3.22
2022-09-14T03:52:57.474Z,3.40
2022-09-14T03:55:27.876Z,3.70
2022-09-14T03:57:58.893Z,3.45
2022-09-14T04:00:29.072Z,3.67
2022-09-14T04:03:03.847Z,3.25
2022-09-14T04:05:34.688Z,3.50
2022-09-14T04:08:05.162Z,3.28
2022-09-14T04:10:35.334Z,3.88
2022-09-14T04:13:05.527Z,3.45
2022-09-14T04:15:35.578Z,3.70
2022-09-14T04:18:10.692Z,3.60
2022-09-14T04:20:40.870Z,3.80
2022-09-14T04:23:12.433Z,4.55
2022-09-14T04:25:42.508Z,3.63
2022-09-14T04:28:20.156Z,3.97
2022-09-14T04:30:58.470Z,3.67
2022-09-14T04:33:33.552Z,3.70
2022-09-14T04:36:05.582Z,3.70
2022-09-14T04:38:37.302Z,3.53
2022-09-14T04:41:09.295Z,3.42
2022-09-14T04:43:40.111Z,3.60
2022-09-14T04:46:13.758Z,3.75
2022-09-14T04:48:46.917Z,3.80
2022-09-14T04:51:18.959Z,3.53
2022-09-14T04:53:51.313Z,4.28
2022-09-14T04:56:23.293Z,3.72
2022-09-14T04:58:55.869Z,3.70
2022-09-14T05:01:28.657Z,3.75
2022-09-14T05:04:03.922Z,3.90
2022-09-14T05:06:36.600Z,3.97
2022-09-14T05:09:09.320Z,3.15
2022-09-14T05:11:39.493Z,3.33
2022-09-14T05:14:09.684Z,3.20
2022-09-14T05:16:41.750Z,3.17
2022-09-14T05:19:19.823Z,3.92
2022-09-14T05:21:50.800Z,3.40
2022-09-14T05:24:21.956Z,3.53
2022-09-14T05:27:00.983Z,3.40
2022-09-14T05:29:32.468Z,3.15
2022-09-14T05:32:02.746Z,3.50
2022-09-14T05:34:35.535Z,3.58
2022-09-14T05:37:05.863Z,3.83
2022-09-14T05:39:36.025Z,3.60
2022-09-14T05:42:06.339Z,3.92
2022-09-14T05:44:36.610Z,4.05
2022-09-14T05:47:06.836Z,4.03
2022-09-14T05:49:39.568Z,4.30
2022-09-14T05:52:09.692Z,4.25
2022-09-14T05:54:39.851Z,4.38
2022-09-14T05:57:10.036Z,4.13
2022-09-14T05:59:40.540Z,4.13
2022-09-14T06:02:15.354Z,4.07
2022-09-14T06:04:51.168Z,4.13
2022-09-14T06:07:21.790Z,3.97
2022-09-14T06:09:52.382Z,4.18
2022-09-14T06:12:24.185Z,3.70
2022-09-14T06:14:54.757Z,3.63
2022-09-14T06:17:25.405Z,5.32
2022-09-14T06:20:02.247Z,4.60
2022-09-14T06:22:35.073Z,3.85
2022-09-14T06:25:05.184Z,4.18
2022-09-14T06:27:37.937Z,4.20
2022-09-14T06:30:09.824Z,3.60
2022-09-14T06:32:39.998Z,4.43
2022-09-14T06:35:12.857Z,4.18
2022-09-14T06:37:42.947Z,3.97
2022-09-14T06:40:14.078Z,4.40
2022-09-14T06:42:44.309Z,3.53
2022-09-14T06:45:14.503Z,3.20
2022-09-14T06:47:44.811Z,3.70
2022-09-14T06:50:17.671Z,3.92
2022-09-14T06:52:47.833Z,3.15
2022-09-14T06:55:18.186Z,4.05
2022-09-14T06:57:50.769Z,3.38
2022-09-14T07:00:21.144Z,3.40
2022-09-14T07:02:55.397Z,3.00
2022-09-14T07:05:28.401Z,3.25
2022-09-14T07:07:58.465Z,2.80
2022-09-14T07:10:28.808Z,3.47
2022-09-14T07:12:58.903Z,2.88
2022-09-14T07:15:29.239Z,3.00
2022-09-14T07:17:59.423Z,2.70
2022-09-14T07:20:33.094Z,2.92
2022-09-14T07:23:03.326Z,3.03
2022-09-14T07:25:33.592Z,2.65
2022-09-14T07:28:04.091Z,2.85
2022-09-14T07:30:37.860Z,2.90
2022-09-14T07:35:41.166Z,2.70
2022-09-14T07:38:11.746Z,2.72
2022-09-14T07:40:42.056Z,2.50
2022-09-14T07:43:12.430Z,2.58
2022-09-14T07:45:42.676Z,2.80
2022-09-14T07:48:12.891Z,2.60
2022-09-14T07:50:45.693Z,3.17
2022-09-14T07:53:17.006Z,2.85
2022-09-14T07:55:47.361Z,2.97
2022-09-14T07:58:19.935Z,2.75
2022-09-14T08:00:50.819Z,2.67
2022-09-14T08:03:20.975Z,2.85
2022-09-14T08:06:01.466Z,2.55
2022-09-14T08:08:32.685Z,2.40
2022-09-14T08:11:11.298Z,2.67
2022-09-14T08:13:43.061Z,2.58
2022-09-14T08:16:14.397Z,2.55
2022-09-14T08:18:44.833Z,2.65
2022-09-14T08:21:19.614Z,2.88
2022-09-14T08:23:49.734Z,2.80
2022-09-14T08:26:22.667Z,2.60
2022-09-14T08:28:53.858Z,2.57
2022-09-14T08:31:25.976Z,2.72
2022-09-14T08:33:58.344Z,2.90
2022-09-14T08:36:33.128Z,2.53
2022-09-14T08:39:03.834Z,2.28
2022-09-14T08:41:38.427Z,2.72
2022-09-14T08:44:17.800Z,2.50
2022-09-14T08:46:51.296Z,2.95
2022-09-14T08:49:36.636Z,3.15
2022-09-14T08:52:18.803Z,3.00
2022-09-14T08:54:53.806Z,2.72
2022-09-14T08:57:35.927Z,2.57
2022-09-14T09:00:13.293Z,3.03
2022-09-14T09:03:01.801Z,3.20
2022-09-14T09:05:43.231Z,2.90
2022-09-14T09:08:22.682Z,2.83
2022-09-14T09:10:56.573Z,2.55
2022-09-14T09:13:29.698Z,3.78
2022-09-14T09:16:02.793Z,3.05
2022-09-14T09:18:40.481Z,3.22
2022-09-14T09:21:16.616Z,4.10
2022-09-14T09:23:49.555Z,3.50
2022-09-14T09:26:26.707Z,2.90
2022-09-14T09:29:00.470Z,3.00
2022-09-14T09:31:36.061Z,3.03
2022-09-14T09:34:06.612Z,2.97
2022-09-14T09:36:39.754Z,3.30
2022-09-14T09:39:12.709Z,3.58
2022-09-14T09:41:47.575Z,2.90
2022-09-14T09:44:18.419Z,3.47
2022-09-14T09:46:51.351Z,3.25
2022-09-14T09:49:24.805Z,3.58
2022-09-14T09:51:56.252Z,3.75
2022-09-14T09:54:32.467Z,3.47
2022-09-14T09:57:05.159Z,4.35
2022-09-14T09:59:38.217Z,4.25
2022-09-14T10:02:25.270Z,3.50
2022-09-14T10:05:01.688Z,3.67
2022-09-14T10:07:34.209Z,3.30
2022-09-14T10:10:11.189Z,4.28
2022-09-14T10:12:48.869Z,3.40
2022-09-14T10:15:23.337Z,3.65
2022-09-14T10:18:19.935Z,3.42
2022-09-14T10:21:09.631Z,3.83
2022-09-14T10:23:41.331Z,3.47
2022-09-14T10:26:29.329Z,4.20
2022-09-14T10:29:27.969Z,3.45
2022-09-14T10:32:05.239Z,4.20
2022-09-14T10:34:35.572Z,4.00
2022-09-14T10:37:19.764Z,3.53
2022-09-14T10:39:58.479Z,3.88
2022-09-14T10:42:43.258Z,3.55
2022-09-14T10:45:22.128Z,3.83
2022-09-14T10:48:09.448Z,4.43
2022-09-14T10:50:57.664Z,4.88
2022-09-14T10:53:44.293Z,5.15
2022-09-14T10:56:22.001Z,4.30
2022-09-14T10:59:22.808Z,4.78
2022-09-14T11:02:24.573Z,4.47
2022-09-14T11:05:10.298Z,5.20
2022-09-14T11:07:47.827Z,4.80
2022-09-14T11:10:24.955Z,4.40
2022-09-14T11:13:19.525Z,5.18
2022-09-14T11:16:00.819Z,4.60
2022-09-14T11:18:40.395Z,5.40
2022-09-14T11:21:19.345Z,4.30
2022-09-14T11:23:54.539Z,4.20
2022-09-14T11:26:31.628Z,4.45
2022-09-14T11:29:09.399Z,4.10
2022-09-14T11:32:04.222Z,4.32
2022-09-14T11:34:42.119Z,3.80
2022-09-14T11:37:15.597Z,4.70
2022-09-14T11:39:51.581Z,3.85
2022-09-14T11:42:26.072Z,9.07
2022-09-14T11:45:02.166Z,4.43
2022-09-14T11:47:42.818Z,5.53
2022-09-14T11:50:22.129Z,5.10
2022-09-14T11:52:58.662Z,4.45
2022-09-14T11:55:29.237Z,3.97
2022-09-14T11:58:00.101Z,4.78
2022-09-14T12:00:48.560Z,3.92
2022-09-14T12:03:24.340Z,4.35
2022-09-14T12:05:54.670Z,4.28
2022-09-14T12:08:31.098Z,4.40
2022-09-14T12:11:07.776Z,4.47
2022-09-14T12:13:38.881Z,4.15
2022-09-14T12:16:12.424Z,4.10
2022-09-14T12:21:24.000Z,4.22
2022-09-14T12:23:58.042Z,4.65
2022-09-14T12:26:37.927Z,4.22
2022-09-14T12:29:29.444Z,4.55
2022-09-14T12:32:26.044Z,4.30
2022-09-14T12:35:29.007Z,4.40
2022-09-14T12:38:02.012Z,3.83
2022-09-14T12:40:38.159Z,4.43
2022-09-14T12:43:52.477Z,4.03
2022-09-14T12:46:49.840Z,5.05
2022-09-14T12:49:33.658Z,3.78
2022-09-14T12:52:17.300Z,3.67
2022-09-14T12:55:03.057Z,3.90
2022-09-14T12:57:42.611Z,3.95
2022-09-14T13:00:17.187Z,3.67
2022-09-14T13:03:14.105Z,4.05
2022-09-14T13:05:48.052Z,3.53
2022-09-14T13:08:23.750Z,4.20
2022-09-14T13:10:56.815Z,4.20
2022-09-14T13:13:33.367Z,4.20
2022-09-14T13:16:06.089Z,4.00
2022-09-14T13:18:38.524Z,4.00
2022-09-14T13:21:24.087Z,3.72
2022-09-14T13:23:54.688Z,3.58
2022-09-14T13:26:30.107Z,3.78
2022-09-14T13:29:02.747Z,4.05
2022-09-14T13:31:36.322Z,3.92
2022-09-14T13:34:07.700Z,3.75
2022-09-14T13:36:42.950Z,4.20
2022-09-14T13:39:25.316Z,3.80
2022-09-14T13:41:59.387Z,3.40
2022-09-14T13:44:33.490Z,3.85
2022-09-14T13:47:06.441Z,3.72
2022-09-14T13:49:38.539Z,3.78
2022-09-14T13:52:59.882Z,3.70
2022-09-14T13:55:27.879Z,3.58
2022-09-14T13:58:26.594Z,3.58
2022-09-14T14:01:00.198Z,4.05
2022-09-14T14:06:26.875Z,3.17
2022-09-14T14:09:03.212Z,3.53
2022-09-14T14:11:37.545Z,3.75
2022-09-14T14:14:27.637Z,3.35
2022-09-14T14:17:26.117Z,3.53
2022-09-14T14:19:57.714Z,3.15
2022-09-14T14:22:31.002Z,3.60
2022-09-14T14:27:46.354Z,3.53
2022-09-14T14:30:21.561Z,3.53
2022-09-14T14:32:53.745Z,3.20
2022-09-14T14:35:26.035Z,3.45
2022-09-14T14:37:56.979Z,3.80
2022-09-14T14:40:29.552Z,3.90
2022-09-14T14:43:04.332Z,3.33
2022-09-14T14:45:38.169Z,3.70
2022-09-14T14:48:09.063Z,3.75
2022-09-14T14:50:39.300Z,4.90
2022-09-14T14:53:09.906Z,3.95
2022-09-14T14:55:41.108Z,3.47
2022-09-14T14:58:18.141Z,3.72
2022-09-14T15:00:52.037Z,3.72
2022-09-14T15:03:22.422Z,3.42
2022-09-14T15:05:53.029Z,3.15
2022-09-14T15:08:23.277Z,3.80
2022-09-14T15:10:59.112Z,3.50
2022-09-14T15:13:29.351Z,3.35
2022-09-14T15:16:02.127Z,3.50
2022-09-14T15:18:32.422Z,3.60
2022-09-14T15:21:02.665Z,4.15
2022-09-14T15:23:33.281Z,3.75
2022-09-14T15:26:03.586Z,3.67
2022-09-14T15:28:38.278Z,4.20
2022-09-14T15:31:11.217Z,3.80
2022-09-14T15:33:41.494Z,3.60
2022-09-14T15:36:11.794Z,3.97
2022-09-14T15:38:42.035Z,3.55
2022-09-14T15:41:17.457Z,3.97
2022-09-14T15:43:47.650Z,3.22
2022-09-14T15:46:20.509Z,3.97
2022-09-14T15:48:50.806Z,3.90
2022-09-14T15:51:21.244Z,4.00
2022-09-14T15:53:52.740Z,4.00
2022-09-14T15:56:22.890Z,3.90
2022-09-14T15:58:53.164Z,3.50
2022-09-14T16:01:25.993Z,4.10
2022-09-14T16:04:00.367Z,4.40
2022-09-14T16:06:32.326Z,4.95
2022-09-14T16:09:04.115Z,4.50
2022-09-14T16:11:34.793Z,4.10
2022-09-14T16:14:05.653Z,4.40
2022-09-14T16:16:39.903Z,3.85
2022-09-14T16:19:11.991Z,4.03
2022-09-14T16:21:43.112Z,4.65
2022-09-14T16:24:15.589Z,5.18
2022-09-14T16:26:46.063Z,5.00
2022-09-14T16:29:18.608Z,4.90
2022-09-14T16:31:51.860Z,4.82
2022-09-14T16:34:24.437Z,4.50
2022-09-14T16:36:55.523Z,4.88
2022-09-14T16:39:27.607Z,4.57
2022-09-14T16:42:00.054Z,4.75
2022-09-14T16:44:31.369Z,4.90
2022-09-14T16:47:04.155Z,4.72
2022-09-14T16:49:34.358Z,4.43
2022-09-14T16:52:04.933Z,4.63
2022-09-14T16:54:35.257Z,5.40
2022-09-14T16:57:05.425Z,4.70
2022-09-14T16:59:35.542Z,4.05
2022-09-14T17:02:08.357Z,4.60
2022-09-14T17:04:38.587Z,4.57
2022-09-14T17:07:08.992Z,4.50
2022-09-14T17:09:41.181Z,4.95
2022-09-14T17:12:11.687Z,4.43
2022-09-14T17:14:42.453Z,5.13
2022-09-14T17:17:15.602Z,4.43
2022-09-14T17:19:46.057Z,5.07
2022-09-14T17:22:16.345Z,5.45
2022-09-14T17:24:46.533Z,5.03
2022-09-14T17:27:18.934Z,4.45
2022-09-14T17:29:49.165Z,5.15
2022-09-14T17:32:21.951Z,5.25
2022-09-14T17:34:52.272Z,5.70
2022-09-14T17:37:26.473Z,5.50
2022-09-14T17:39:56.744Z,5.50
2022-09-14T17:42:27.097Z,5.13
2022-09-14T17:44:57.460Z,6.13
2022-09-14T17:47:30.329Z,6.13
2022-09-14T17:50:00.574Z,5.35
2022-09-14T17:52:31.215Z,5.70
2022-09-14T17:55:01.408Z,5.55
2022-09-14T17:57:31.562Z,5.22
2022-09-14T18:00:02.381Z,6.28
2022-09-14T18:02:35.337Z,5.30
2022-09-14T18:05:05.597Z,5.20
2022-09-14T18:07:36.133Z,5.95
2022-09-14T18:10:07.433Z,6.15
2022-09-14T18:12:39.903Z,6.20
2022-09-14T18:15:11.032Z,6.05
2022-09-14T18:17:47.536Z,5.35
2022-09-14T18:20:17.830Z,6.00
2022-09-14T18:22:47.944Z,6.03
2022-09-14T18:25:18.323Z,6.00
2022-09-14T18:27:48.561Z,6.15
2022-09-14T18:30:18.811Z,5.97
2022-09-14T18:32:53.026Z,5.88
2022-09-14T18:35:23.617Z,6.35
2022-09-14T18:37:54.513Z,6.43
2022-09-14T18:40:24.799Z,5.65
2022-09-14T18:42:55.122Z,8.75
2022-09-14T18:45:25.258Z,6.10
2022-09-14T18:47:58.097Z,6.95
2022-09-14T18:50:29.261Z,8.48
2022-09-14T18:52:59.509Z,8.23
2022-09-14T18:55:29.933Z,11.10
2022-09-14T18:58:00.166Z,10.27
2022-09-14T19:00:31.099Z,11.75
2022-09-14T19:03:07.285Z,10.38
2022-09-14T19:05:43.029Z,11.27
2022-09-14T19:08:13.783Z,11.25
2022-09-14T19:10:43.978Z,10.15
2022-09-14T19:13:14.126Z,10.98
2022-09-14T19:15:44.715Z,9.52
2022-09-14T19:18:17.483Z,10.27
2022-09-14T19:21:06.019Z,9.77
2022-09-14T19:23:38.061Z,8.32
2022-09-14T19:26:10.406Z,8.75
2022-09-14T19:28:41.378Z,8.00
2022-09-14T19:31:13.860Z,7.82
2022-09-14T19:33:47.409Z,7.30
2022-09-14T19:36:19.964Z,8.40
2022-09-14T19:38:50.933Z,7.97
2022-09-14T19:41:41.703Z,7.85
2022-09-14T19:44:31.783Z,9.35
2022-09-14T19:47:02.199Z,9.07
2022-09-14T19:49:35.268Z,9.68
2022-09-14T19:52:06.181Z,10.27
2022-09-14T19:54:36.877Z,10.48
2022-09-14T19:57:07.122Z,10.13
2022-09-14T19:59:37.857Z,10.05
2022-09-14T20:02:08.371Z,9.57
2022-09-14T20:04:41.213Z,8.88
2022-09-14T20:07:11.400Z,10.48
2022-09-14T20:09:41.821Z,9.70
2022-09-14T20:12:11.932Z,9.48
2022-09-14T20:14:42.139Z,9.68
2022-09-14T20:17:12.265Z,8.40
2022-09-14T20:19:45.441Z,8.85
2022-09-14T20:22:16.922Z,9.00
2022-09-14T20:24:47.273Z,8.13
2022-09-14T20:27:17.391Z,7.95
2022-09-14T20:29:48.834Z,7.65
2022-09-14T20:32:20.341Z,8.88
2022-09-14T20:34:53.419Z,8.45
2022-09-14T20:37:23.877Z,7.60
2022-09-14T20:39:54.565Z,8.77
2022-09-14T20:42:25.112Z,7.95
2022-09-14T20:44:55.454Z,7.05
2022-09-14T20:47:25.965Z,7.15
2022-09-14T20:49:59.369Z,7.63
2022-09-14T20:52:32.573Z,6.85
2022-09-14T20:55:02.982Z,7.03
2022-09-14T20:57:35.087Z,6.78
2022-09-14T21:00:06.629Z,6.95
2022-09-14T21:02:37.855Z,7.10
2022-09-14T21:05:12.087Z,6.65
2022-09-14T21:07:42.770Z,6.28
2022-09-14T21:10:13.623Z,6.80
2022-09-14T21:12:44.338Z,6.22
2022-09-14T21:15:14.950Z,7.00
2022-09-14T21:17:45.480Z,6.35
2022-09-14T21:20:18.878Z,6.78
2022-09-14T21:22:49.166Z,6.77
2022-09-14T21:25:19.697Z,6.15
2022-09-14T21:27:50.360Z,7.03
2022-09-14T21:30:20.970Z,6.88
2022-09-14T21:32:51.718Z,6.10
2022-09-14T21:35:24.496Z,6.50
2022-09-14T21:37:54.964Z,5.67
2022-09-14T21:40:25.487Z,6.15
2022-09-14T21:42:56.953Z,6.05
2022-09-14T21:45:27.552Z,5.80
2022-09-14T21:47:58.201Z,6.45
2022-09-14T21:50:31.469Z,6.72
2022-09-14T21:53:03.763Z,6.13
2022-09-14T21:55:34.379Z,6.38
2022-09-14T21:58:04.691Z,6.03
2022-09-14T22:00:35.279Z,6.00
2022-09-14T22:03:05.707Z,6.03
2022-09-14T22:05:38.822Z,6.05
2022-09-14T22:08:09.166Z,6.30
2022-09-14T22:10:40.593Z,6.40
2022-09-14T22:13:10.911Z,5.80
2022-09-14T22:15:42.455Z,5.80
2022-09-14T22:18:12.842Z,5.70
2022-09-14T22:20:45.868Z,6.05
2022-09-14T22:23:15.971Z,5.57
2022-09-14T22:25:46.252Z,5.68
2022-09-14T22:28:16.536Z,5.25
2022-09-14T22:30:47.771Z,5.70
2022-09-14T22:33:18.208Z,5.95
2022-09-14T22:35:57.917Z,5.15
2022-09-14T22:38:30.591Z,5.28
2022-09-14T22:41:03.312Z,6.40
2022-09-14T22:43:34.612Z,5.43
2022-09-14T22:46:05.361Z,6.00
2022-09-14T22:48:36.154Z,6.70
2022-09-14T22:51:10.839Z,6.63
2022-09-14T22:53:41.527Z,6.18
2022-09-14T22:56:15.675Z,6.65
2022-09-14T22:58:46.557Z,5.93
2022-09-14T23:01:19.336Z,6.00
2022-09-14T23:03:50.489Z,6.22
2022-09-14T23:06:23.592Z,6.68
2022-09-14T23:08:54.005Z,7.07
2022-09-14T23:11:25.056Z,6.25
2022-09-14T23:13:56.263Z,6.28
2022-09-14T23:16:28.514Z,6.40
2022-09-14T23:19:00.687Z,6.70
2022-09-14T23:21:34.731Z,7.35
2022-09-14T23:24:08.210Z,6.40
2022-09-14T23:26:38.816Z,7.47
2022-09-14T23:29:11.393Z,7.72
2022-09-14T23:31:42.698Z,8.63
2022-09-14T23:34:13.086Z,9.25
2022-09-14T23:36:46.584Z,8.40
2022-09-14T23:39:16.970Z,8.88
2022-09-14T23:41:48.105Z,8.70
2022-09-14T23:44:18.938Z,9.27
2022-09-14T23:46:49.520Z,8.90
2022-09-14T23:49:20.103Z,8.98
2022-09-14T23:51:53.384Z,9.73
2022-09-14T23:54:24.115Z,8.95
2022-09-14T23:56:54.486Z,8.80
2022-09-14T23:59:24.798Z,8.05
